sensor_id;sensor_type;location;lat;lon;timestamp;pressure;altitude;pressure_sealevel;temperature;humidity
63111;BME280;49201;53.426;10.300;2023-05-02T00:01:08;101712.88;;;12.01;100.00
63111;BME280;49201;53.426;10.300;2023-05-02T00:03:34;101712.94;;;12.03;100.00
63111;BME280;49201;53.426;10.300;2023-05-02T00:05:59;101723.16;;;12.01;100.00
63111;BME280;49201;53.426;10.300;2023-05-02T00:08:25;101729.97;;;12.01;100.00
63111;BME280;49201;53.426;10.300;2023-05-02T00:10:50;101712.69;;;11.94;100.00
63111;BME280;49201;53.426;10.300;2023-05-02T00:13:16;101689.59;;;11.94;100.00
63111;BME280;49201;53.426;10.300;2023-05-02T00:15:42;101667.28;;;11.91;100.00
63111;BME280;49201;53.426;10.300;2023-05-02T00:18:07;101631.25;;;11.88;100.00
63111;BME280;49201;53.426;10.300;2023-05-02T00:20:33;101611.50;;;11.86;100.00
63111;BME280;49201;53.426;10.300;2023-05-02T00:22:58;101595.22;;;11.84;100.00
63111;BME280;49201;53.426;10.300;2023-05-02T00:25:24;101597.72;;;11.82;100.00
63111;BME280;49201;53.426;10.300;2023-05-02T00:27:49;101592.47;;;11.78;100.00
63111;BME280;49201;53.426;10.300;2023-05-02T00:30:16;101595.81;;;11.75;100.00
63111;BME280;49201;53.426;10.300;2023-05-02T00:32:42;101602.56;;;11.72;100.00
63111;BME280;49201;53.426;10.300;2023-05-02T00:35:08;101599.84;;;11.66;100.00
63111;BME280;49201;53.426;10.300;2023-05-02T00:37:33;101604.00;;;11.62;100.00
63111;BME280;49201;53.426;10.300;2023-05-02T00:39:59;101601.44;;;11.62;100.00
63111;BME280;49201;53.426;10.300;2023-05-02T00:42:25;101601.28;;;11.58;100.00
63111;BME280;49201;53.426;10.300;2023-05-02T00:44:50;101602.97;;;11.56;100.00
63111;BME280;49201;53.426;10.300;2023-05-02T00:47:16;101605.50;;;11.54;100.00
63111;BME280;49201;53.426;10.300;2023-05-02T00:49:41;101609.63;;;11.51;100.00
63111;BME280;49201;53.426;10.300;2023-05-02T00:52:07;101611.09;;;11.41;100.00
63111;BME280;49201;53.426;10.300;2023-05-02T00:54:33;101615.28;;;11.39;100.00
63111;BME280;49201;53.426;10.300;2023-05-02T00:56:58;101611.81;;;11.37;100.00
63111;BME280;49201;53.426;10.300;2023-05-02T00:59:24;101598.97;;;11.36;100.00
63111;BME280;49201;53.426;10.300;2023-05-02T01:12:36;101591.41;;;11.40;100.00
63111;BME280;49201;53.426;10.300;2023-05-02T01:15:07;101593.19;;;11.43;100.00
63111;BME280;49201;53.426;10.300;2023-05-02T01:17:34;101594.91;;;11.44;100.00
63111;BME280;49201;53.426;10.300;2023-05-02T01:20:16;101594.03;;;11.43;100.00
63111;BME280;49201;53.426;10.300;2023-05-02T01:22:44;101597.53;;;11.45;100.00
63111;BME280;49201;53.426;10.300;2023-05-02T01:30:26;101594.09;;;11.45;100.00
63111;BME280;49201;53.426;10.300;2023-05-02T01:32:54;101595.88;;;11.47;100.00
63111;BME280;49201;53.426;10.300;2023-05-02T01:35:22;101591.63;;;11.48;100.00
63111;BME280;49201;53.426;10.300;2023-05-02T01:37:49;101596.75;;;11.48;100.00
63111;BME280;49201;53.426;10.300;2023-05-02T01:40:19;101591.66;;;11.49;100.00
63111;BME280;49201;53.426;10.300;2023-05-02T01:42:49;101596.84;;;11.52;100.00
63111;BME280;49201;53.426;10.300;2023-05-02T01:45:16;101596.91;;;11.54;100.00
63111;BME280;49201;53.426;10.300;2023-05-02T01:47:44;101599.56;;;11.57;100.00
63111;BME280;49201;53.426;10.300;2023-05-02T01:50:21;101598.81;;;11.59;100.00
63111;BME280;49201;53.426;10.300;2023-05-02T01:52:50;101597.06;;;11.58;100.00
63111;BME280;49201;53.426;10.300;2023-05-02T01:55:17;101602.22;;;11.60;100.00
63111;BME280;49201;53.426;10.300;2023-05-02T01:57:45;101598.03;;;11.62;100.00
63111;BME280;49201;53.426;10.300;2023-05-02T02:00:12;101604.88;;;11.63;100.00
63111;BME280;49201;53.426;10.300;2023-05-02T02:02:42;101610.91;;;11.63;100.00
63111;BME280;49201;53.426;10.300;2023-05-02T02:05:09;101609.19;;;11.64;100.00
63111;BME280;49201;53.426;10.300;2023-05-02T02:07:36;101608.34;;;11.65;100.00
63111;BME280;49201;53.426;10.300;2023-05-02T02:10:02;101609.19;;;11.64;100.00
63111;BME280;49201;53.426;10.300;2023-05-02T02:12:34;101613.47;;;11.63;100.00
63111;BME280;49201;53.426;10.300;2023-05-02T02:15:25;101611.75;;;11.64;100.00
63111;BME280;49201;53.426;10.300;2023-05-02T02:18:00;101625.47;;;11.64;100.00
63111;BME280;49201;53.426;10.300;2023-05-02T02:20:29;101620.34;;;11.64;100.00
63111;BME280;49201;53.426;10.300;2023-05-02T02:22:58;101614.31;;;11.64;100.00
63111;BME280;49201;53.426;10.300;2023-05-02T02:25:25;101612.53;;;11.61;100.00
63111;BME280;49201;53.426;10.300;2023-05-02T02:27:51;101624.53;;;11.62;100.00
63111;BME280;49201;53.426;10.300;2023-05-02T02:30:17;101625.22;;;11.57;100.00
63111;BME280;49201;53.426;10.300;2023-05-02T02:32:42;101625.91;;;11.51;100.00
63111;BME280;49201;53.426;10.300;2023-05-02T02:35:08;101624.25;;;11.53;100.00
63111;BME280;49201;53.426;10.300;2023-05-02T02:37:40;101630.16;;;11.51;100.00
63111;BME280;49201;53.426;10.300;2023-05-02T02:40:18;101631.03;;;11.51;100.00
63111;BME280;49201;53.426;10.300;2023-05-02T02:45:40;101635.16;;;11.46;100.00
63111;BME280;49201;53.426;10.300;2023-05-02T02:48:36;101635.16;;;11.46;100.00
63111;BME280;49201;53.426;10.300;2023-05-02T02:51:10;101641.97;;;11.46;100.00
63111;BME280;49201;53.426;10.300;2023-05-02T02:53:59;101647.03;;;11.43;100.00
63111;BME280;49201;53.426;10.300;2023-05-02T02:56:38;101647.84;;;11.42;100.00
63111;BME280;49201;53.426;10.300;2023-05-02T03:01:42;101658.09;;;11.40;100.00
63111;BME280;49201;53.426;10.300;2023-05-02T03:04:12;101661.44;;;11.38;100.00
63111;BME280;49201;53.426;10.300;2023-05-02T03:06:38;101668.28;;;11.39;100.00
63111;BME280;49201;53.426;10.300;2023-05-02T03:09:04;101668.13;;;11.34;100.00
63111;BME280;49201;53.426;10.300;2023-05-02T03:11:30;101678.41;;;11.34;100.00
63111;BME280;49201;53.426;10.300;2023-05-02T03:13:57;101683.50;;;11.33;100.00
63111;BME280;49201;53.426;10.300;2023-05-02T03:16:37;101675.81;;;11.33;100.00
63111;BME280;49201;53.426;10.300;2023-05-02T03:19:06;101680.78;;;11.28;100.00
63111;BME280;49201;53.426;10.300;2023-05-02T03:21:32;101683.34;;;11.28;100.00
63111;BME280;49201;53.426;10.300;2023-05-02T03:24:04;101691.72;;;11.23;100.00
63111;BME280;49201;53.426;10.300;2023-05-02T03:26:30;101698.41;;;11.18;100.00
63111;BME280;49201;53.426;10.300;2023-05-02T03:28:57;101703.31;;;11.10;100.00
63111;BME280;49201;53.426;10.300;2023-05-02T03:31:28;101715.00;;;11.02;100.00
63111;BME280;49201;53.426;10.300;2023-05-02T03:33:54;101721.72;;;10.99;100.00
63111;BME280;49201;53.426;10.300;2023-05-02T03:36:19;101722.31;;;10.90;100.00
63111;BME280;49201;53.426;10.300;2023-05-02T03:38:45;101727.75;;;10.74;100.00
63111;BME280;49201;53.426;10.300;2023-05-02T03:41:12;101741.00;;;10.61;100.00
63111;BME280;49201;53.426;10.300;2023-05-02T03:43:39;101760.16;;;10.49;100.00
63111;BME280;49201;53.426;10.300;2023-05-02T03:46:05;101756.31;;;10.36;100.00
63111;BME280;49201;53.426;10.300;2023-05-02T03:48:34;101761.19;;;10.29;100.00
63111;BME280;49201;53.426;10.300;2023-05-02T03:51:01;101761.56;;;10.16;100.00
63111;BME280;49201;53.426;10.300;2023-05-02T03:53:29;101774.22;;;10.11;100.00
63111;BME280;49201;53.426;10.300;2023-05-02T03:55:58;101787.47;;;10.03;100.00
63111;BME280;49201;53.426;10.300;2023-05-02T03:58:34;101796.53;;;9.93;100.00
63111;BME280;49201;53.426;10.300;2023-05-02T04:01:03;101809.25;;;9.92;100.00
63111;BME280;49201;53.426;10.300;2023-05-02T04:03:28;101809.44;;;9.74;100.00
63111;BME280;49201;53.426;10.300;2023-05-02T04:05:54;101808.16;;;9.41;100.00
63111;BME280;49201;53.426;10.300;2023-05-02T04:08:20;101828.69;;;9.44;100.00
63111;BME280;49201;53.426;10.300;2023-05-02T04:10:45;101836.97;;;9.39;100.00
63111;BME280;49201;53.426;10.300;2023-05-02T04:13:12;101839.53;;;9.39;100.00
63111;BME280;49201;53.426;10.300;2023-05-02T04:15:41;101845.38;;;9.35;100.00
63111;BME280;49201;53.426;10.300;2023-05-02T04:18:06;101851.84;;;9.27;100.00
63111;BME280;49201;53.426;10.300;2023-05-02T04:20:32;101851.59;;;9.21;100.00
63111;BME280;49201;53.426;10.300;2023-05-02T04:22:58;101866.59;;;9.13;100.00
63111;BME280;49201;53.426;10.300;2023-05-02T04:25:24;101865.84;;;9.16;100.00
63111;BME280;49201;53.426;10.300;2023-05-02T04:27:52;101865.22;;;9.21;100.00
63111;BME280;49201;53.426;10.300;2023-05-02T04:30:21;101872.06;;;9.21;100.00
63111;BME280;49201;53.426;10.300;2023-05-02T04:32:55;101880.31;;;9.15;100.00
63111;BME280;49201;53.426;10.300;2023-05-02T04:35:21;101888.84;;;9.16;100.00
63111;BME280;49201;53.426;10.300;2023-05-02T04:37:47;101897.47;;;9.18;100.00
63111;BME280;49201;53.426;10.300;2023-05-02T04:40:14;101902.50;;;9.16;100.00
63111;BME280;49201;53.426;10.300;2023-05-02T04:42:41;101908.44;;;9.15;100.00
63111;BME280;49201;53.426;10.300;2023-05-02T04:45:14;101907.91;;;9.03;100.00
63111;BME280;49201;53.426;10.300;2023-05-02T04:47:41;101920.50;;;8.99;100.00
63111;BME280;49201;53.426;10.300;2023-05-02T04:50:07;101914.50;;;8.98;100.00
63111;BME280;49201;53.426;10.300;2023-05-02T04:52:34;101932.44;;;9.00;100.00
63111;BME280;49201;53.426;10.300;2023-05-02T04:55:00;101925.72;;;9.02;100.00
63111;BME280;49201;53.426;10.300;2023-05-02T04:57:26;101934.13;;;8.99;100.00
63111;BME280;49201;53.426;10.300;2023-05-02T04:59:56;101952.88;;;9.00;100.00
63111;BME280;49201;53.426;10.300;2023-05-02T05:02:21;101948.03;;;9.06;100.00
63111;BME280;49201;53.426;10.300;2023-05-02T05:04:47;101950.59;;;9.06;100.00
63111;BME280;49201;53.426;10.300;2023-05-02T05:07:13;101942.59;;;8.98;100.00
63111;BME280;49201;53.426;10.300;2023-05-02T05:09:41;101953.63;;;8.97;100.00
63111;BME280;49201;53.426;10.300;2023-05-02T05:12:07;101950.47;;;9.03;100.00
63111;BME280;49201;53.426;10.300;2023-05-02T05:14:34;101941.94;;;9.02;100.00
63111;BME280;49201;53.426;10.300;2023-05-02T05:17:00;101914.72;;;9.03;100.00
63111;BME280;49201;53.426;10.300;2023-05-02T05:19:26;101935.81;;;8.99;100.00
63111;BME280;49201;53.426;10.300;2023-05-02T05:21:52;101926.50;;;9.20;100.00
63111;BME280;49201;53.426;10.300;2023-05-02T05:24:19;101901.31;;;9.29;100.00
63111;BME280;49201;53.426;10.300;2023-05-02T05:26:45;101919.06;;;9.45;100.00
63111;BME280;49201;53.426;10.300;2023-05-02T05:29:11;101924.41;;;9.51;100.00
63111;BME280;49201;53.426;10.300;2023-05-02T05:31:39;101935.81;;;9.59;100.00
63111;BME280;49201;53.426;10.300;2023-05-02T05:34:06;101924.78;;;9.60;100.00
63111;BME280;49201;53.426;10.300;2023-05-02T05:36:32;101907.88;;;9.63;100.00
63111;BME280;49201;53.426;10.300;2023-05-02T05:38:57;101903.41;;;9.58;100.00
63111;BME280;49201;53.426;10.300;2023-05-02T05:41:23;101882.00;;;9.35;100.00
63111;BME280;49201;53.426;10.300;2023-05-02T05:43:54;101911.63;;;9.30;100.00
63111;BME280;49201;53.426;10.300;2023-05-02T05:46:22;101923.84;;;9.37;100.00
63111;BME280;49201;53.426;10.300;2023-05-02T05:48:48;101934.25;;;9.42;100.00
63111;BME280;49201;53.426;10.300;2023-05-02T05:51:13;101938.97;;;9.33;100.00
63111;BME280;49201;53.426;10.300;2023-05-02T05:53:39;101956.41;;;9.41;100.00
63111;BME280;49201;53.426;10.300;2023-05-02T05:56:09;101975.91;;;9.39;100.00
63111;BME280;49201;53.426;10.300;2023-05-02T05:58:35;101987.47;;;9.31;100.00
63111;BME280;49201;53.426;10.300;2023-05-02T06:01:01;101998.03;;;9.20;100.00
63111;BME280;49201;53.426;10.300;2023-05-02T06:03:27;101973.72;;;9.09;100.00
63111;BME280;49201;53.426;10.300;2023-05-02T06:05:53;101950.06;;;9.13;100.00
63111;BME280;49201;53.426;10.300;2023-05-02T06:08:19;101956.31;;;9.19;100.00
63111;BME280;49201;53.426;10.300;2023-05-02T06:10:46;101975.13;;;9.21;100.00
63111;BME280;49201;53.426;10.300;2023-05-02T06:13:11;101987.78;;;9.18;100.00
63111;BME280;49201;53.426;10.300;2023-05-02T06:15:40;101963.81;;;9.16;100.00
63111;BME280;49201;53.426;10.300;2023-05-02T06:18:06;101968.63;;;9.09;100.00
63111;BME280;49201;53.426;10.300;2023-05-02T06:20:31;101960.81;;;9.06;100.00
63111;BME280;49201;53.426;10.300;2023-05-02T06:22:57;101961.69;;;9.06;100.00
63111;BME280;49201;53.426;10.300;2023-05-02T06:25:23;101947.84;;;9.01;100.00
63111;BME280;49201;53.426;10.300;2023-05-02T06:27:48;101955.19;;;8.94;100.00
63111;BME280;49201;53.426;10.300;2023-05-02T06:30:14;101949.25;;;8.95;100.00
63111;BME280;49201;53.426;10.300;2023-05-02T06:32:40;101950.84;;;8.93;100.00
63111;BME280;49201;53.426;10.300;2023-05-02T06:35:09;101946.50;;;8.90;100.00
63111;BME280;49201;53.426;10.300;2023-05-02T06:37:35;101957.44;;;8.88;100.00
63111;BME280;49201;53.426;10.300;2023-05-02T06:40:01;101979.69;;;8.90;100.00
63111;BME280;49201;53.426;10.300;2023-05-02T06:42:27;101984.69;;;8.87;100.00
63111;BME280;49201;53.426;10.300;2023-05-02T06:44:53;101983.06;;;8.70;100.00
63111;BME280;49201;53.426;10.300;2023-05-02T06:47:19;101990.97;;;8.76;100.00
63111;BME280;49201;53.426;10.300;2023-05-02T06:49:44;101995.06;;;8.73;100.00
63111;BME280;49201;53.426;10.300;2023-05-02T06:52:10;102020.84;;;8.77;100.00
63111;BME280;49201;53.426;10.300;2023-05-02T06:54:35;102025.22;;;8.80;100.00
63111;BME280;49201;53.426;10.300;2023-05-02T06:57:01;102068.34;;;8.93;100.00
63111;BME280;49201;53.426;10.300;2023-05-02T06:59:27;102041.78;;;9.07;100.00
63111;BME280;49201;53.426;10.300;2023-05-02T07:01:52;101951.94;;;9.17;100.00
63111;BME280;49201;53.426;10.300;2023-05-02T07:04:18;101919.78;;;9.22;100.00
63111;BME280;49201;53.426;10.300;2023-05-02T07:06:44;101896.97;;;9.26;100.00
63111;BME280;49201;53.426;10.300;2023-05-02T07:09:10;101905.75;;;9.33;100.00
63111;BME280;49201;53.426;10.300;2023-05-02T07:11:35;101897.63;;;9.41;100.00
63111;BME280;49201;53.426;10.300;2023-05-02T07:14:01;101879.38;;;9.34;100.00
63111;BME280;49201;53.426;10.300;2023-05-02T07:16:26;101872.53;;;9.33;100.00
63111;BME280;49201;53.426;10.300;2023-05-02T07:18:52;101870.84;;;9.33;100.00
63111;BME280;49201;53.426;10.300;2023-05-02T07:21:17;101875.22;;;9.15;100.00
63111;BME280;49201;53.426;10.300;2023-05-02T07:23:43;101899.28;;;9.20;100.00
63111;BME280;49201;53.426;10.300;2023-05-02T07:26:08;101901.75;;;9.19;100.00
63111;BME280;49201;53.426;10.300;2023-05-02T07:28:34;101908.59;;;9.20;100.00
63111;BME280;49201;53.426;10.300;2023-05-02T07:30:59;101907.84;;;9.22;100.00
63111;BME280;49201;53.426;10.300;2023-05-02T07:33:25;101896.47;;;9.14;100.00
63111;BME280;49201;53.426;10.300;2023-05-02T07:35:50;101871.53;;;9.09;100.00
63111;BME280;49201;53.426;10.300;2023-05-02T07:38:16;101867.03;;;9.24;100.00
63111;BME280;49201;53.426;10.300;2023-05-02T07:40:41;101862.00;;;9.25;100.00
63111;BME280;49201;53.426;10.300;2023-05-02T07:43:08;101853.50;;;9.26;100.00
63111;BME280;49201;53.426;10.300;2023-05-02T07:45:33;101843.56;;;9.32;100.00
63111;BME280;49201;53.426;10.300;2023-05-02T07:47:59;101830.19;;;9.39;100.00
63111;BME280;49201;53.426;10.300;2023-05-02T07:50:25;101831.31;;;9.46;100.00
63111;BME280;49201;53.426;10.300;2023-05-02T07:52:51;101818.31;;;9.40;100.00
63111;BME280;49201;53.426;10.300;2023-05-02T07:55:17;101767.94;;;9.37;100.00
63111;BME280;49201;53.426;10.300;2023-05-02T07:57:43;101749.75;;;9.52;100.00
63111;BME280;49201;53.426;10.300;2023-05-02T08:00:08;101758.22;;;9.73;100.00
63111;BME280;49201;53.426;10.300;2023-05-02T08:02:41;101743.31;;;9.85;100.00
63111;BME280;49201;53.426;10.300;2023-05-02T08:05:07;101709.44;;;9.90;100.00
63111;BME280;49201;53.426;10.300;2023-05-02T08:07:32;101693.50;;;9.97;100.00
63111;BME280;49201;53.426;10.300;2023-05-02T08:09:59;101700.59;;;10.04;99.99
63111;BME280;49201;53.426;10.300;2023-05-02T08:12:25;101686.19;;;10.08;96.30
63111;BME280;49201;53.426;10.300;2023-05-02T08:14:50;101664.38;;;10.17;95.61
63111;BME280;49201;53.426;10.300;2023-05-02T08:17:16;101674.00;;;10.24;94.11
63111;BME280;49201;53.426;10.300;2023-05-02T08:19:41;101645.88;;;10.26;92.05
63111;BME280;49201;53.426;10.300;2023-05-02T08:22:06;101666.78;;;10.38;92.86
63111;BME280;49201;53.426;10.300;2023-05-02T08:24:32;101639.59;;;10.94;89.67
63111;BME280;49201;53.426;10.300;2023-05-02T08:26:58;101587.97;;;10.82;84.98
63111;BME280;49201;53.426;10.300;2023-05-02T08:29:23;101584.31;;;10.74;83.47
63111;BME280;49201;53.426;10.300;2023-05-02T08:31:48;101582.28;;;10.64;82.21
63111;BME280;49201;53.426;10.300;2023-05-02T08:34:14;101629.63;;;10.77;88.09
63111;BME280;49201;53.426;10.300;2023-05-02T08:36:40;101650.81;;;10.71;90.71
63111;BME280;49201;53.426;10.300;2023-05-02T08:39:05;101661.91;;;10.72;88.84
63111;BME280;49201;53.426;10.300;2023-05-02T08:41:32;101639.84;;;10.75;85.87
63111;BME280;49201;53.426;10.300;2023-05-02T08:43:58;101640.94;;;10.83;83.93
63111;BME280;49201;53.426;10.300;2023-05-02T08:46:24;101639.59;;;10.94;85.31
63111;BME280;49201;53.426;10.300;2023-05-02T08:48:51;101645.00;;;11.03;84.50
63111;BME280;49201;53.426;10.300;2023-05-02T08:51:17;101634.66;;;11.00;82.10
63111;BME280;49201;53.426;10.300;2023-05-02T08:53:44;101598.44;;;10.90;76.46
63111;BME280;49201;53.426;10.300;2023-05-02T08:56:11;101598.00;;;11.32;76.48
63111;BME280;49201;53.426;10.300;2023-05-02T08:58:38;101589.66;;;11.39;75.45
63111;BME280;49201;53.426;10.300;2023-05-02T09:01:22;101589.28;;;11.86;74.54
63111;BME280;49201;53.426;10.300;2023-05-02T09:03:48;101567.72;;;11.80;71.84
63111;BME280;49201;53.426;10.300;2023-05-02T09:06:20;101582.25;;;11.79;71.98
63111;BME280;49201;53.426;10.300;2023-05-02T09:08:47;101586.69;;;11.85;70.55
63111;BME280;49201;53.426;10.300;2023-05-02T09:11:14;101577.44;;;11.91;68.94
63111;BME280;49201;53.426;10.300;2023-05-02T09:16:09;101596.22;;;12.23;68.69
63111;BME280;49201;53.426;10.300;2023-05-02T09:18:44;101574.16;;;12.31;66.82
63111;BME280;49201;53.426;10.300;2023-05-02T09:21:16;101559.63;;;13.07;62.67
63111;BME280;49201;53.426;10.300;2023-05-02T09:23:47;101560.75;;;13.20;62.42
63111;BME280;49201;53.426;10.300;2023-05-02T09:26:29;101631.50;;;13.40;58.99
63111;BME280;49201;53.426;10.300;2023-05-02T09:29:00;101663.50;;;13.14;58.99
63111;BME280;49201;53.426;10.300;2023-05-02T09:31:30;101699.28;;;13.05;60.37
63111;BME280;49201;53.426;10.300;2023-05-02T09:34:12;101716.28;;;12.98;61.60
63111;BME280;49201;53.426;10.300;2023-05-02T09:36:40;101720.78;;;13.08;61.64
63111;BME280;49201;53.426;10.300;2023-05-02T09:39:11;101745.84;;;12.81;61.57
63111;BME280;49201;53.426;10.300;2023-05-02T09:41:45;101737.56;;;12.94;59.50
63111;BME280;49201;53.426;10.300;2023-05-02T09:44:19;101752.03;;;13.23;59.57
63111;BME280;49201;53.426;10.300;2023-05-02T09:46:46;101755.94;;;13.08;59.06
63111;BME280;49201;53.426;10.300;2023-05-02T09:49:12;101765.69;;;13.58;59.09
63111;BME280;49201;53.426;10.300;2023-05-02T09:51:39;101729.03;;;14.11;54.70
63111;BME280;49201;53.426;10.300;2023-05-02T09:54:04;101768.00;;;14.24;54.40
63111;BME280;49201;53.426;10.300;2023-05-02T09:56:30;101814.41;;;14.27;53.79
63111;BME280;49201;53.426;10.300;2023-05-02T09:59:12;101834.91;;;14.21;53.07
63111;BME280;49201;53.426;10.300;2023-05-02T10:01:40;101867.31;;;14.52;53.36
63111;BME280;49201;53.426;10.300;2023-05-02T10:04:11;101900.66;;;14.87;55.03
63111;BME280;49201;53.426;10.300;2023-05-02T10:06:43;101858.94;;;14.63;51.19
63111;BME280;49201;53.426;10.300;2023-05-02T10:09:10;101913.34;;;14.77;52.71
63111;BME280;49201;53.426;10.300;2023-05-02T10:11:43;101978.00;;;14.86;50.97
63111;BME280;49201;53.426;10.300;2023-05-02T10:14:09;102017.09;;;15.05;49.92
63111;BME280;49201;53.426;10.300;2023-05-02T10:16:38;102030.41;;;15.69;48.37
63111;BME280;49201;53.426;10.300;2023-05-02T10:19:11;102024.69;;;16.39;47.35
63111;BME280;49201;53.426;10.300;2023-05-02T10:21:38;102041.13;;;16.42;47.03
63111;BME280;49201;53.426;10.300;2023-05-02T10:24:04;102069.13;;;15.68;48.11
63111;BME280;49201;53.426;10.300;2023-05-02T10:26:33;102093.91;;;15.18;49.64
63111;BME280;49201;53.426;10.300;2023-05-02T10:28:59;102115.81;;;14.60;50.15
63111;BME280;49201;53.426;10.300;2023-05-02T10:31:25;102136.50;;;14.63;51.07
63111;BME280;49201;53.426;10.300;2023-05-02T10:33:51;102146.41;;;14.80;51.30
63111;BME280;49201;53.426;10.300;2023-05-02T10:36:20;102125.78;;;14.45;50.34
63111;BME280;49201;53.426;10.300;2023-05-02T10:38:46;102131.25;;;14.58;50.24
63111;BME280;49201;53.426;10.300;2023-05-02T10:41:16;102108.53;;;15.58;49.51
63111;BME280;49201;53.426;10.300;2023-05-02T10:43:47;102101.81;;;15.26;50.17
63111;BME280;49201;53.426;10.300;2023-05-02T10:46:38;102095.31;;;15.03;49.46
63111;BME280;49201;53.426;10.300;2023-05-02T10:49:11;102129.94;;;14.77;51.31
63111;BME280;49201;53.426;10.300;2023-05-02T10:51:39;102164.06;;;14.65;53.17
63111;BME280;49201;53.426;10.300;2023-05-02T10:59:37;102217.50;;;14.37;56.69
63111;BME280;49201;53.426;10.300;2023-05-02T11:05:05;102223.28;;;14.30;56.92
63111;BME280;49201;53.426;10.300;2023-05-02T11:07:32;102193.91;;;14.23;54.79
63111;BME280;49201;53.426;10.300;2023-05-02T11:12:45;102195.13;;;14.05;55.20
63111;BME280;49201;53.426;10.300;2023-05-02T11:15:12;102175.91;;;13.94;53.96
63111;BME280;49201;53.426;10.300;2023-05-02T11:18:06;102186.59;;;14.72;55.02
63111;BME280;49201;53.426;10.300;2023-05-02T11:20:34;102111.59;;;15.83;50.65
63111;BME280;49201;53.426;10.300;2023-05-02T11:25:42;102166.53;;;14.96;52.48
63111;BME280;49201;53.426;10.300;2023-05-02T11:30:58;102195.31;;;14.43;54.20
63111;BME280;49201;53.426;10.300;2023-05-02T11:33:26;102206.25;;;14.35;55.19
63111;BME280;49201;53.426;10.300;2023-05-02T11:35:52;102230.91;;;14.25;57.29
63111;BME280;49201;53.426;10.300;2023-05-02T11:38:19;102261.59;;;14.18;60.51
63111;BME280;49201;53.426;10.300;2023-05-02T11:40:56;102279.00;;;14.56;62.49
63111;BME280;49201;53.426;10.300;2023-05-02T11:43:23;102244.69;;;14.92;59.52
63111;BME280;49201;53.426;10.300;2023-05-02T11:45:53;102215.47;;;15.29;56.28
63111;BME280;49201;53.426;10.300;2023-05-02T11:48:20;102178.78;;;15.06;54.67
63111;BME280;49201;53.426;10.300;2023-05-02T11:50:49;102194.34;;;14.38;55.22
63111;BME280;49201;53.426;10.300;2023-05-02T11:53:26;102243.72;;;14.22;58.92
63111;BME280;49201;53.426;10.300;2023-05-02T11:55:55;102269.44;;;14.21;61.74
63111;BME280;49201;53.426;10.300;2023-05-02T11:58:23;102291.94;;;13.98;64.12
63111;BME280;49201;53.426;10.300;2023-05-02T12:00:50;102293.53;;;13.65;64.86
63111;BME280;49201;53.426;10.300;2023-05-02T12:03:25;102344.72;;;13.56;73.00
63111;BME280;49201;53.426;10.300;2023-05-02T12:05:51;102347.63;;;13.40;70.74
63111;BME280;49201;53.426;10.300;2023-05-02T12:08:18;102363.03;;;13.65;73.03
63111;BME280;49201;53.426;10.300;2023-05-02T12:10:44;102319.22;;;13.64;66.07
63111;BME280;49201;53.426;10.300;2023-05-02T12:13:10;102312.78;;;13.23;64.10
63111;BME280;49201;53.426;10.300;2023-05-02T12:15:35;102327.75;;;13.10;65.85
63111;BME280;49201;53.426;10.300;2023-05-02T12:18:01;102343.53;;;12.95;69.03
63111;BME280;49201;53.426;10.300;2023-05-02T12:20:27;102344.72;;;12.79;69.31
63111;BME280;49201;53.426;10.300;2023-05-02T12:22:52;102365.34;;;12.82;71.33
63111;BME280;49201;53.426;10.300;2023-05-02T12:25:18;102395.09;;;12.98;76.97
63111;BME280;49201;53.426;10.300;2023-05-02T12:28:02;102404.25;;;13.15;78.95
63111;BME280;49201;53.426;10.300;2023-05-02T12:30:29;102409.81;;;13.27;77.84
63111;BME280;49201;53.426;10.300;2023-05-02T12:33:01;102398.47;;;13.47;75.77
63111;BME280;49201;53.426;10.300;2023-05-02T12:35:27;102373.38;;;13.67;72.03
63111;BME280;49201;53.426;10.300;2023-05-02T12:37:54;102325.03;;;13.58;64.80
63111;BME280;49201;53.426;10.300;2023-05-02T12:40:20;102291.81;;;13.66;61.16
63111;BME280;49201;53.426;10.300;2023-05-02T12:42:59;102325.94;;;13.87;64.40
63111;BME280;49201;53.426;10.300;2023-05-02T12:45:31;102306.25;;;14.18;62.71
63111;BME280;49201;53.426;10.300;2023-05-02T12:48:24;102281.84;;;14.06;60.12
63111;BME280;49201;53.426;10.300;2023-05-02T12:50:51;102223.22;;;14.93;54.32
63111;BME280;49201;53.426;10.300;2023-05-02T12:53:17;102215.78;;;15.07;54.18
63111;BME280;49201;53.426;10.300;2023-05-02T12:56:02;102200.59;;;14.83;52.52
63111;BME280;49201;53.426;10.300;2023-05-02T12:58:28;102240.03;;;14.45;55.39
63111;BME280;49201;53.426;10.300;2023-05-02T13:00:53;102286.47;;;13.88;58.55
63111;BME280;49201;53.426;10.300;2023-05-02T13:03:19;102322.09;;;13.73;62.33
63111;BME280;49201;53.426;10.300;2023-05-02T13:05:45;102348.66;;;13.72;65.26
63111;BME280;49201;53.426;10.300;2023-05-02T13:08:11;102343.91;;;13.57;64.00
63111;BME280;49201;53.426;10.300;2023-05-02T13:10:36;102340.69;;;13.38;62.71
63111;BME280;49201;53.426;10.300;2023-05-02T13:13:01;102323.56;;;13.38;61.37
63111;BME280;49201;53.426;10.300;2023-05-02T13:15:27;102301.31;;;13.40;58.51
63111;BME280;49201;53.426;10.300;2023-05-02T13:17:53;102301.28;;;13.39;59.70
63111;BME280;49201;53.426;10.300;2023-05-02T13:20:19;102325.09;;;13.07;61.21
63111;BME280;49201;53.426;10.300;2023-05-02T13:22:44;102343.50;;;13.19;62.67